createdAt,value
2018-03-06T00:00:17.086Z,6.60
2018-03-06T00:02:47.542Z,6.60
2018-03-06T00:05:15.950Z,6.60
2018-03-06T00:07:44.970Z,6.50
2018-03-06T00:10:13.298Z,6.40
2018-03-06T00:12:42.990Z,6.40
2018-03-06T00:15:11.282Z,6.40
2018-03-06T00:17:39.538Z,6.50
2018-03-06T00:20:09.468Z,6.40
2018-03-06T00:22:37.713Z,6.30
2018-03-06T00:25:06.033Z,6.20
2018-03-06T00:27:34.447Z,6.10
2018-03-06T00:30:04.649Z,6.10
2018-03-06T00:32:33.042Z,6.10
2018-03-06T00:35:02.707Z,6.00
2018-03-06T00:37:31.036Z,6.00
2018-03-06T00:40:00.052Z,5.90
2018-03-06T00:42:28.396Z,5.90
2018-03-06T00:44:57.475Z,5.80
2018-03-06T00:47:26.085Z,5.80
2018-03-06T00:49:55.547Z,5.90
2018-03-06T00:52:25.052Z,5.90
2018-03-06T00:54:53.425Z,5.90
2018-03-06T00:57:22.113Z,5.80
2018-03-06T00:59:50.406Z,5.70
2018-03-06T01:02:18.774Z,5.70
2018-03-06T01:04:49.034Z,5.60
2018-03-06T01:07:18.058Z,5.50
2018-03-06T01:09:46.682Z,5.50
2018-03-06T01:12:15.402Z,5.50
2018-03-06T01:14:43.832Z,5.50
2018-03-06T01:17:12.129Z,5.60
2018-03-06T01:19:40.894Z,5.70
2018-03-06T01:22:09.154Z,5.70
2018-03-06T01:24:37.402Z,5.60
2018-03-06T01:27:05.706Z,5.50
2018-03-06T01:29:35.114Z,5.50
2018-03-06T01:32:03.412Z,5.30
2018-03-06T01:34:31.678Z,5.20
2018-03-06T01:37:00.098Z,5.10
2018-03-06T01:39:28.473Z,5.10
2018-03-06T01:41:57.151Z,5.00
2018-03-06T01:44:26.254Z,4.90
2018-03-06T01:49:30.160Z,4.80
2018-03-06T01:51:58.846Z,4.90
2018-03-06T01:54:29.378Z,4.90
2018-03-06T01:57:00.416Z,4.90
2018-03-06T01:59:29.255Z,4.90
2018-03-06T02:01:57.698Z,5.00
2018-03-06T02:04:26.708Z,5.00
2018-03-06T02:07:00.332Z,4.90
2018-03-06T02:09:28.798Z,4.90
2018-03-06T02:11:57.641Z,4.80
2018-03-06T02:14:25.986Z,4.70
2018-03-06T02:16:56.462Z,4.60
2018-03-06T02:19:25.610Z,4.60
2018-03-06T02:21:55.068Z,4.50
2018-03-06T02:24:23.354Z,4.50
2018-03-06T02:26:52.374Z,4.50
2018-03-06T02:29:21.286Z,4.40
2018-03-06T02:31:50.298Z,4.40
2018-03-06T02:34:22.850Z,4.40
2018-03-06T02:36:51.676Z,4.30
2018-03-06T02:39:20.749Z,4.30
2018-03-06T02:41:49.049Z,4.30
2018-03-06T02:44:17.377Z,4.30
2018-03-06T02:46:45.756Z,4.30
2018-03-06T02:49:15.196Z,4.20
2018-03-06T02:51:46.291Z,4.20
2018-03-06T02:54:15.313Z,4.20
2018-03-06T02:56:44.052Z,4.20
2018-03-06T02:59:13.637Z,4.20
2018-03-06T03:01:41.930Z,4.10
2018-03-06T03:04:10.197Z,4.10
2018-03-06T03:06:43.195Z,4.10
2018-03-06T03:12:25.197Z,4.00
2018-03-06T03:14:53.449Z,4.00
2018-03-06T03:17:21.704Z,4.00
2018-03-06T03:19:50.763Z,3.90
2018-03-06T03:24:52.997Z,3.90
2018-03-06T03:29:54.609Z,3.90
2018-03-06T03:32:22.942Z,3.90
2018-03-06T03:34:51.950Z,4.00
2018-03-06T03:37:20.970Z,4.00
2018-03-06T03:39:49.215Z,4.00
2018-03-06T03:42:17.500Z,4.00
2018-03-06T03:44:45.742Z,4.00
2018-03-06T03:47:14.414Z,3.90
2018-03-06T03:49:42.662Z,3.80
2018-03-06T03:52:10.935Z,3.80
2018-03-06T03:54:39.188Z,3.70
2018-03-06T03:57:07.446Z,3.70
2018-03-06T03:59:35.814Z,3.70
2018-03-06T04:02:04.831Z,3.60
2018-03-06T04:04:33.206Z,3.60
2018-03-06T04:07:01.514Z,3.60
2018-03-06T04:09:37.686Z,3.50
2018-03-06T04:12:05.953Z,3.50
2018-03-06T04:14:34.341Z,3.40
2018-03-06T04:19:40.622Z,3.40
2018-03-06T04:22:08.866Z,3.40
2018-03-06T04:24:37.130Z,3.40
2018-03-06T04:27:05.413Z,3.40
2018-03-06T04:29:33.786Z,3.30
2018-03-06T04:32:02.798Z,3.30
2018-03-06T04:34:31.073Z,3.20
2018-03-06T04:36:59.326Z,3.20
2018-03-06T04:39:27.921Z,3.20
2018-03-06T04:41:57.585Z,3.20
2018-03-06T04:44:25.830Z,3.10
2018-03-06T04:46:54.073Z,3.10
2018-03-06T04:49:22.350Z,3.20
2018-03-06T04:51:51.369Z,3.30
2018-03-06T04:54:19.624Z,3.30
2018-03-06T04:56:47.908Z,3.30
2018-03-06T04:59:16.150Z,3.20
2018-03-06T05:01:44.401Z,3.30
2018-03-06T05:04:12.797Z,3.40
2018-03-06T05:06:41.047Z,3.30
2018-03-06T05:09:09.392Z,3.20
2018-03-06T05:11:38.422Z,3.20
2018-03-06T05:14:06.671Z,3.20
2018-03-06T05:16:34.918Z,3.20
2018-03-06T05:19:03.996Z,3.00
2018-03-06T05:21:32.245Z,3.00
2018-03-06T05:24:00.494Z,3.00
2018-03-06T05:26:29.329Z,3.00
2018-03-06T05:28:57.578Z,2.90
2018-03-06T05:31:25.994Z,2.80
2018-03-06T05:33:54.274Z,2.80
2018-03-06T05:36:22.526Z,2.80
2018-03-06T05:38:50.771Z,2.70
2018-03-06T05:41:19.330Z,2.70
2018-03-06T05:43:47.590Z,2.80
2018-03-06T05:46:15.843Z,2.80
2018-03-06T05:48:45.346Z,2.90
2018-03-06T05:51:13.674Z,2.90
2018-03-06T05:53:42.697Z,3.00
2018-03-06T05:56:10.970Z,2.90
2018-03-06T05:58:39.361Z,3.10
2018-03-06T06:01:07.667Z,3.00
2018-03-06T06:03:36.047Z,3.00
2018-03-06T06:06:04.293Z,3.00
2018-03-06T06:08:32.546Z,2.90
2018-03-06T06:11:01.062Z,2.80
2018-03-06T06:13:29.320Z,2.80
2018-03-06T06:15:57.558Z,2.90
2018-03-06T06:18:25.826Z,2.80
2018-03-06T06:20:54.066Z,2.70
2018-03-06T06:23:22.317Z,2.70
2018-03-06T06:25:51.346Z,2.80
2018-03-06T06:28:19.841Z,2.80
2018-03-06T06:30:48.241Z,2.90
2018-03-06T06:33:16.851Z,2.90
2018-03-06T06:35:45.095Z,3.00
2018-03-06T06:38:13.341Z,3.00
2018-03-06T06:40:41.605Z,3.00
2018-03-06T06:43:10.262Z,3.00
2018-03-06T06:45:38.633Z,3.00
2018-03-06T06:48:07.678Z,3.20
2018-03-06T06:50:36.214Z,3.10
2018-03-06T06:53:04.462Z,3.20
2018-03-06T06:55:33.118Z,3.20
2018-03-06T06:58:01.362Z,3.20
2018-03-06T07:00:29.607Z,3.30
2018-03-06T07:02:57.886Z,3.40
2018-03-06T07:05:26.120Z,3.50
2018-03-06T07:07:54.366Z,3.50
2018-03-06T07:10:22.705Z,3.60
2018-03-06T07:12:50.881Z,3.60
2018-03-06T07:15:19.130Z,3.60
2018-03-06T07:17:47.581Z,3.50
2018-03-06T07:20:15.830Z,3.50
2018-03-06T07:22:44.079Z,3.50
2018-03-06T07:25:12.342Z,3.60
2018-03-06T07:27:40.598Z,3.60
2018-03-06T07:30:08.841Z,3.60
2018-03-06T07:32:37.878Z,3.70
2018-03-06T07:35:06.130Z,3.70
2018-03-06T07:37:34.422Z,3.70
2018-03-06T07:40:03.032Z,3.80
2018-03-06T07:42:31.282Z,3.80
2018-03-06T07:45:00.047Z,4.00
2018-03-06T07:47:29.082Z,4.10
2018-03-06T07:49:57.340Z,4.00
2018-03-06T07:52:25.577Z,4.10
2018-03-06T07:54:54.613Z,4.20
2018-03-06T07:57:22.865Z,4.20
2018-03-06T07:59:51.878Z,4.30
2018-03-06T08:02:20.281Z,4.30
2018-03-06T08:04:48.536Z,4.30
2018-03-06T08:07:16.782Z,4.40
2018-03-06T08:09:45.183Z,4.40
2018-03-06T08:12:13.421Z,4.50
2018-03-06T08:14:41.787Z,4.60
2018-03-06T08:17:10.059Z,4.70
2018-03-06T08:19:38.305Z,4.70
2018-03-06T08:22:06.554Z,4.70
2018-03-06T08:24:35.082Z,4.90
2018-03-06T08:27:03.333Z,5.00
2018-03-06T08:29:31.590Z,5.10
2018-03-06T08:31:59.866Z,5.20
2018-03-06T08:34:28.886Z,5.40
2018-03-06T08:36:57.138Z,5.40
2018-03-06T08:39:25.502Z,5.50
2018-03-06T08:41:53.726Z,5.50
2018-03-06T08:44:22.078Z,5.60
2018-03-06T08:46:51.730Z,5.80
2018-03-06T08:49:19.986Z,5.70
2018-03-06T08:51:48.230Z,5.80
2018-03-06T08:54:16.502Z,5.90
2018-03-06T08:56:45.518Z,5.90
2018-03-06T08:59:13.770Z,5.90
2018-03-06T09:01:42.038Z,5.90
2018-03-06T09:04:10.291Z,6.00
2018-03-06T09:06:38.565Z,6.00
2018-03-06T09:09:07.134Z,6.10
2018-03-06T09:11:35.389Z,6.20
2018-03-06T09:14:03.823Z,6.30
2018-03-06T09:16:32.087Z,6.30
2018-03-06T09:19:00.330Z,6.30
2018-03-06T09:21:28.578Z,6.40
2018-03-06T09:23:56.846Z,6.50
2018-03-06T09:26:25.098Z,6.50
2018-03-06T09:28:53.350Z,6.60
2018-03-06T09:31:21.682Z,6.80
2018-03-06T09:33:49.949Z,6.80
2018-03-06T09:36:18.202Z,6.80
2018-03-06T09:38:46.466Z,6.90
2018-03-06T09:41:14.761Z,7.00
2018-03-06T09:43:43.010Z,7.10
2018-03-06T09:46:11.286Z,7.00
2018-03-06T09:48:40.267Z,7.10
2018-03-06T09:51:08.530Z,7.10
2018-03-06T09:53:37.189Z,7.20
2018-03-06T09:56:05.442Z,7.30
2018-03-06T09:58:33.682Z,7.40
2018-03-06T10:01:07.793Z,7.50
2018-03-06T10:03:36.042Z,7.50
2018-03-06T10:06:05.057Z,7.50
2018-03-06T10:08:33.330Z,7.50
2018-03-06T10:11:01.573Z,7.70
2018-03-06T10:13:29.821Z,8.00
2018-03-06T10:15:58.297Z,8.30
2018-03-06T10:18:26.576Z,8.60
2018-03-06T10:20:54.835Z,8.90
2018-03-06T10:23:23.105Z,9.20
2018-03-06T10:25:51.353Z,9.40
2018-03-06T10:28:19.602Z,9.40
2018-03-06T10:30:47.878Z,9.60
2018-03-06T10:33:16.133Z,9.60
2018-03-06T10:35:44.382Z,9.80
2018-03-06T10:38:13.082Z,10.10
2018-03-06T10:40:41.346Z,10.40
2018-03-06T10:43:09.600Z,10.50
2018-03-06T10:45:37.874Z,10.50
2018-03-06T10:48:06.890Z,10.50
2018-03-06T10:50:35.554Z,10.40
2018-03-06T10:53:04.710Z,10.50
2018-03-06T10:55:32.949Z,10.50
2018-03-06T10:58:01.203Z,10.60
2018-03-06T11:00:35.257Z,10.80
2018-03-06T11:03:03.548Z,10.90
2018-03-06T11:05:31.790Z,11.10
2018-03-06T11:08:00.068Z,11.10
2018-03-06T11:10:28.319Z,11.10
2018-03-06T11:12:56.573Z,11.20
2018-03-06T11:15:24.847Z,11.40
2018-03-06T11:17:53.097Z,11.60
2018-03-06T11:20:21.354Z,11.70
2018-03-06T11:22:50.057Z,11.90
2018-03-06T11:25:18.338Z,12.00
2018-03-06T11:27:46.737Z,12.10
2018-03-06T11:30:15.014Z,12.30
2018-03-06T11:32:43.266Z,12.30
2018-03-06T11:35:11.518Z,12.40
2018-03-06T11:37:39.794Z,12.40
2018-03-06T11:40:08.054Z,12.30
2018-03-06T11:42:37.076Z,12.20
2018-03-06T11:45:05.737Z,12.20
2018-03-06T11:47:34.784Z,12.40
2018-03-06T11:50:03.026Z,12.40
2018-03-06T11:52:31.822Z,12.60
2018-03-06T11:55:00.072Z,12.70
2018-03-06T11:57:28.321Z,12.70
2018-03-06T11:59:56.598Z,12.50
2018-03-06T12:02:24.856Z,12.10
2018-03-06T12:04:53.106Z,12.00
2018-03-06T12:07:21.804Z,12.00
2018-03-06T12:09:50.067Z,12.10
2018-03-06T12:12:18.342Z,12.10
2018-03-06T12:14:46.602Z,12.10
2018-03-06T12:17:14.973Z,12.10
2018-03-06T12:19:43.226Z,12.30
2018-03-06T12:22:12.394Z,12.40
2018-03-06T12:24:40.658Z,12.50
2018-03-06T12:27:08.902Z,12.60
2018-03-06T12:29:37.518Z,12.60
2018-03-06T12:32:05.773Z,12.50
2018-03-06T12:34:34.034Z,12.50
2018-03-06T12:37:02.351Z,12.50
2018-03-06T12:39:30.594Z,12.40
2018-03-06T12:41:58.846Z,12.30
2018-03-06T12:44:27.892Z,11.50
2018-03-06T12:46:56.141Z,11.50
2018-03-06T12:49:24.393Z,11.30
2018-03-06T12:51:52.933Z,11.00
2018-03-06T12:54:21.581Z,11.00
2018-03-06T12:56:50.673Z,11.30
2018-03-06T12:59:19.709Z,11.40
2018-03-06T13:01:47.961Z,11.40
2018-03-06T13:04:16.218Z,11.50
2018-03-06T13:06:44.494Z,11.30
2018-03-06T13:09:12.754Z,11.20
2018-03-06T13:11:41.008Z,11.20
2018-03-06T13:14:09.623Z,11.10
2018-03-06T13:16:37.842Z,11.10
2018-03-06T13:19:06.097Z,11.30
2018-03-06T13:21:34.382Z,11.50
2018-03-06T13:24:02.634Z,11.50
2018-03-06T13:26:30.890Z,11.50
2018-03-06T13:28:59.166Z,11.50
2018-03-06T13:31:27.414Z,11.50
2018-03-06T13:33:55.669Z,11.50
2018-03-06T13:36:24.197Z,11.40
2018-03-06T13:38:52.566Z,11.50
2018-03-06T13:41:20.802Z,11.60
2018-03-06T13:43:49.077Z,11.70
2018-03-06T13:46:17.329Z,11.60
2018-03-06T13:48:45.581Z,11.70
2018-03-06T13:51:13.858Z,11.70
2018-03-06T13:53:42.114Z,11.70
2018-03-06T13:56:10.523Z,11.70
2018-03-06T13:58:40.101Z,11.60
2018-03-06T14:01:08.350Z,11.60
2018-03-06T14:03:36.605Z,11.60
2018-03-06T14:06:04.882Z,11.60
2018-03-06T14:08:33.898Z,11.60
2018-03-06T14:11:02.263Z,11.60
2018-03-06T14:13:31.308Z,11.50
2018-03-06T14:15:59.558Z,11.50
2018-03-06T14:18:27.813Z,11.40
2018-03-06T14:20:56.310Z,11.30
2018-03-06T14:23:24.592Z,11.30
2018-03-06T14:25:54.038Z,11.30
2018-03-06T14:28:22.310Z,11.30
2018-03-06T14:30:50.561Z,11.20
2018-03-06T14:33:18.817Z,11.20
2018-03-06T14:35:47.132Z,11.20
2018-03-06T14:38:15.382Z,11.10
2018-03-06T14:40:43.654Z,11.10
2018-03-06T14:43:12.134Z,11.00
2018-03-06T14:45:40.390Z,10.90
2018-03-06T14:48:08.658Z,10.80
2018-03-06T14:50:36.942Z,10.80
2018-03-06T14:53:05.207Z,10.80
2018-03-06T14:55:33.462Z,10.80
2018-03-06T14:58:02.378Z,10.70
2018-03-06T15:00:31.394Z,10.60
2018-03-06T15:02:59.654Z,10.50
2018-03-06T15:05:28.106Z,10.50
2018-03-06T15:07:56.373Z,10.50
2018-03-06T15:10:24.614Z,10.40
2018-03-06T15:12:52.895Z,10.30
2018-03-06T15:15:21.150Z,10.30
2018-03-06T15:17:49.411Z,10.40
2018-03-06T15:20:18.450Z,10.40
2018-03-06T15:22:46.714Z,10.40
2018-03-06T15:25:14.962Z,10.40
2018-03-06T15:27:43.618Z,10.50
2018-03-06T15:30:11.873Z,10.50
2018-03-06T15:32:40.134Z,10.50
2018-03-06T15:35:08.411Z,10.50
2018-03-06T15:37:36.762Z,10.40
2018-03-06T15:40:05.774Z,10.30
2018-03-06T15:42:34.054Z,10.30
2018-03-06T15:45:02.490Z,10.30
2018-03-06T15:47:30.744Z,10.20
2018-03-06T15:49:59.302Z,10.10
2018-03-06T15:52:27.579Z,9.90
2018-03-06T15:54:55.880Z,9.90
2018-03-06T15:57:24.154Z,9.90
2018-03-06T15:59:52.562Z,9.80
2018-03-06T16:02:22.972Z,9.80
2018-03-06T16:04:51.250Z,9.80
2018-03-06T16:07:19.494Z,9.70
2018-03-06T16:09:47.791Z,9.70
2018-03-06T16:12:16.253Z,9.70
2018-03-06T16:14:44.506Z,9.80
2018-03-06T16:17:12.759Z,9.80
2018-03-06T16:19:41.030Z,9.80
2018-03-06T16:22:09.277Z,9.80
2018-03-06T16:24:37.526Z,9.80
2018-03-06T16:27:05.818Z,9.80
2018-03-06T16:29:34.065Z,9.70
2018-03-06T16:32:02.342Z,9.70
2018-03-06T16:34:31.083Z,9.60
2018-03-06T16:36:59.329Z,9.60
2018-03-06T16:39:27.582Z,9.60
2018-03-06T16:41:56.578Z,9.50
2018-03-06T16:44:24.845Z,9.50
2018-03-06T16:46:53.857Z,9.40
2018-03-06T16:49:22.151Z,9.40
2018-03-06T16:51:50.382Z,9.40
2018-03-06T16:54:18.636Z,9.40
2018-03-06T16:56:47.390Z,9.40
2018-03-06T16:59:15.682Z,9.30
2018-03-06T17:01:44.415Z,9.20
2018-03-06T17:04:13.490Z,9.00
2018-03-06T17:06:41.730Z,9.00
2018-03-06T17:09:09.986Z,9.00
2018-03-06T17:11:38.595Z,8.90
2018-03-06T17:14:06.890Z,8.90
2018-03-06T17:16:35.155Z,8.80
2018-03-06T17:19:03.730Z,8.80
2018-03-06T17:21:31.981Z,8.70
2018-03-06T17:24:00.293Z,8.70
2018-03-06T17:26:28.550Z,8.70
2018-03-06T17:28:57.782Z,8.80
2018-03-06T17:31:26.251Z,8.80
2018-03-06T17:33:54.566Z,8.80
2018-03-06T17:36:22.954Z,8.80
2018-03-06T17:38:51.970Z,8.70
2018-03-06T17:41:21.011Z,8.70
2018-03-06T17:43:49.368Z,8.60
2018-03-06T17:46:17.706Z,8.60
2018-03-06T17:48:47.920Z,8.60
2018-03-06T17:51:17.266Z,8.60
2018-03-06T17:53:45.570Z,8.50
2018-03-06T17:56:13.985Z,8.50
2018-03-06T17:58:43.002Z,8.50
2018-03-06T18:01:11.242Z,8.50
2018-03-06T18:03:40.083Z,8.60
2018-03-06T18:06:08.330Z,8.60
2018-03-06T18:08:36.579Z,8.60
2018-03-06T18:11:04.856Z,8.50
2018-03-06T18:13:33.867Z,8.50
2018-03-06T18:16:02.210Z,8.40
2018-03-06T18:18:30.615Z,8.40
2018-03-06T18:20:59.649Z,8.20
2018-03-06T18:23:27.958Z,8.20
2018-03-06T18:25:57.023Z,8.20
2018-03-06T18:28:25.329Z,8.20
2018-03-06T18:30:53.709Z,8.20
2018-03-06T18:33:22.114Z,8.20
2018-03-06T18:35:51.276Z,8.10
2018-03-06T18:38:19.510Z,8.10
2018-03-06T18:40:47.800Z,8.10
2018-03-06T18:43:16.401Z,8.00
2018-03-06T18:45:44.638Z,8.00
2018-03-06T18:48:13.363Z,7.90
2018-03-06T18:50:53.382Z,7.90
2018-03-06T18:53:21.750Z,7.90
2018-03-06T18:55:50.766Z,7.90
2018-03-06T18:58:20.938Z,7.80
2018-03-06T19:01:01.914Z,7.80
2018-03-06T19:03:41.893Z,7.80
2018-03-06T19:06:22.089Z,7.80
2018-03-06T19:08:50.337Z,7.80
2018-03-06T19:11:18.820Z,7.70
2018-03-06T19:13:47.182Z,7.70
2018-03-06T19:16:16.197Z,7.60
2018-03-06T19:18:44.720Z,7.60
2018-03-06T19:21:12.981Z,7.70
2018-03-06T19:23:41.294Z,7.70
2018-03-06T19:26:09.855Z,7.70
2018-03-06T19:28:38.157Z,7.60
2018-03-06T19:31:06.470Z,7.60
2018-03-06T19:33:34.798Z,7.50
2018-03-06T19:36:03.075Z,7.50
2018-03-06T19:38:31.331Z,7.40
2018-03-06T19:40:59.641Z,7.40
2018-03-06T19:43:27.906Z,7.40
2018-03-06T19:45:56.158Z,7.30
2018-03-06T19:48:24.449Z,7.30
2018-03-06T19:50:52.943Z,7.30
2018-03-06T19:53:21.174Z,7.20
2018-03-06T19:55:49.428Z,7.20
2018-03-06T19:58:17.708Z,7.20
2018-03-06T20:00:46.857Z,7.10
2018-03-06T20:03:15.662Z,7.10
2018-03-06T20:05:43.934Z,7.10
2018-03-06T20:08:12.187Z,7.10
2018-03-06T20:10:40.438Z,7.10
2018-03-06T20:13:08.946Z,7.10
2018-03-06T20:15:37.195Z,7.10
2018-03-06T20:18:05.458Z,7.20
2018-03-06T20:20:33.733Z,7.20
2018-03-06T20:23:02.743Z,7.20
2018-03-06T20:25:36.778Z,7.20
2018-03-06T20:28:05.026Z,7.30
2018-03-06T20:30:39.118Z,7.30
2018-03-06T20:33:13.230Z,7.40
2018-03-06T20:35:41.511Z,7.50
2018-03-06T20:41:13.061Z,7.50
2018-03-06T20:43:42.255Z,7.50
2018-03-06T20:46:16.556Z,7.50
2018-03-06T20:48:44.818Z,7.60
2018-03-06T20:51:13.064Z,7.60
2018-03-06T20:53:47.090Z,7.50
2018-03-06T20:56:15.342Z,7.50
2018-03-06T20:58:43.605Z,7.50
2018-03-06T21:01:11.999Z,7.50
2018-03-06T21:03:41.581Z,7.50
2018-03-06T21:06:09.830Z,7.50
2018-03-06T21:08:38.406Z,7.50
2018-03-06T21:11:06.653Z,7.50
2018-03-06T21:13:35.107Z,7.50
2018-03-06T21:16:03.691Z,7.60
2018-03-06T21:18:31.930Z,7.60
2018-03-06T21:21:01.158Z,7.60
2018-03-06T21:23:29.438Z,7.50
2018-03-06T21:25:57.681Z,7.50
2018-03-06T21:28:25.986Z,7.40
2018-03-06T21:30:54.556Z,7.40
2018-03-06T21:33:23.245Z,7.40
2018-03-06T21:35:51.478Z,7.30
2018-03-06T21:38:20.107Z,7.30
2018-03-06T21:40:49.422Z,7.30
2018-03-06T21:43:17.670Z,7.30
2018-03-06T21:45:45.970Z,7.40
2018-03-06T21:48:14.258Z,7.40
2018-03-06T21:50:42.630Z,7.40
2018-03-06T21:53:11.087Z,7.40
2018-03-06T21:55:39.394Z,7.40
2018-03-06T21:58:07.766Z,7.30
2018-03-06T22:00:38.009Z,7.30
2018-03-06T22:03:07.021Z,7.40
2018-03-06T22:05:36.034Z,7.50
2018-03-06T22:08:04.410Z,7.40
2018-03-06T22:10:32.726Z,7.50
2018-03-06T22:13:01.589Z,7.40
2018-03-06T22:15:31.410Z,7.40
2018-03-06T22:17:59.710Z,7.40
2018-03-06T22:20:28.139Z,7.30
2018-03-06T22:22:56.498Z,7.30
2018-03-06T22:25:26.896Z,7.30
2018-03-06T22:27:56.303Z,7.30
2018-03-06T22:30:24.702Z,7.20
2018-03-06T22:32:53.723Z,7.20
2018-03-06T22:35:24.384Z,7.20
2018-03-06T22:37:54.193Z,7.20
2018-03-06T22:40:22.498Z,7.10
2018-03-06T22:42:50.874Z,7.10
2018-03-06T22:45:20.210Z,7.10
2018-03-06T22:47:49.362Z,7.00
2018-03-06T22:50:17.586Z,7.00
2018-03-06T22:52:46.746Z,7.00
2018-03-06T22:55:14.994Z,7.00
2018-03-06T22:57:43.315Z,7.00
2018-03-06T23:00:12.067Z,7.00
2018-03-06T23:02:41.290Z,6.90
2018-03-06T23:05:10.026Z,6.90
2018-03-06T23:07:39.058Z,6.90
2018-03-06T23:10:07.326Z,6.90
2018-03-06T23:12:35.726Z,6.90
2018-03-06T23:15:05.061Z,6.80
2018-03-06T23:17:34.079Z,6.90
2018-03-06T23:20:02.410Z,6.80
2018-03-06T23:22:31.187Z,6.90
2018-03-06T23:24:59.466Z,6.90
2018-03-06T23:27:27.853Z,6.90
2018-03-06T23:29:56.259Z,6.90
2018-03-06T23:32:25.278Z,7.00
2018-03-06T23:34:53.603Z,6.90
2018-03-06T23:37:21.878Z,7.00
2018-03-06T23:39:50.122Z,6.90
2018-03-06T23:42:19.348Z,6.90
2018-03-06T23:44:48.111Z,6.90
2018-03-06T23:47:16.366Z,6.80
2018-03-06T23:49:44.794Z,6.80
2018-03-06T23:52:13.070Z,6.70
2018-03-06T23:54:41.313Z,6.60
2018-03-06T23:57:09.638Z,6.60
2018-03-06T23:59:37.907Z,6.60
